createdAt,value
2022-08-11T12:22:49.368Z,23.33
2022-08-11T12:27:55.209Z,22.14
2022-08-11T12:32:58.106Z,22.44
2022-08-11T12:38:10.646Z,22.22
2022-08-11T12:43:24.216Z,20.87
2022-08-11T12:49:00.355Z,21.45
2022-08-11T12:54:48.580Z,21.83
2022-08-11T12:59:52.230Z,21.41
2022-08-11T13:04:54.745Z,22.48
2022-08-11T13:09:57.673Z,21.32
2022-08-11T13:15:02.239Z,20.41
2022-08-11T13:20:06.114Z,20.51
2022-08-11T13:25:09.523Z,20.93
2022-08-11T13:30:18.541Z,21.88
2022-08-11T13:35:23.168Z,20.48
2022-08-11T13:40:52.638Z,21.19
2022-08-11T13:45:49.814Z,20.72
2022-08-11T13:50:52.365Z,20.79
2022-08-11T13:55:55.394Z,21.83
2022-08-11T14:00:58.792Z,22.10
2022-08-11T14:06:03.496Z,21.60
2022-08-11T14:11:07.744Z,22.34
2022-08-11T14:16:33.334Z,22.55
2022-08-11T14:21:38.119Z,21.63
2022-08-11T14:26:41.652Z,21.72
2022-08-11T14:31:45.873Z,21.89
2022-08-11T14:36:52.043Z,22.83
2022-08-11T14:42:10.244Z,22.65
2022-08-11T14:47:23.932Z,23.26
2022-08-11T14:52:29.446Z,23.57
2022-08-11T14:57:55.152Z,23.82
2022-08-11T15:02:59.490Z,24.26
2022-08-11T15:08:02.425Z,22.85
2022-08-11T15:13:06.016Z,23.30
2022-08-11T15:18:12.511Z,23.40
2022-08-11T15:23:15.441Z,23.89
2022-08-11T15:28:20.064Z,24.10
2022-08-11T15:33:26.788Z,24.73
2022-08-11T15:38:30.458Z,23.86
2022-08-11T15:43:49.061Z,24.00
2022-08-11T15:49:21.721Z,24.41
2022-08-11T15:54:28.885Z,23.18
2022-08-11T15:59:42.799Z,23.32
2022-08-11T16:04:47.799Z,24.62
2022-08-11T16:10:00.043Z,24.93
2022-08-11T16:15:06.782Z,24.82
2022-08-11T16:20:10.267Z,25.66
2022-08-11T16:27:03.158Z,25.74
2022-08-11T16:30:41.286Z,26.03
2022-08-11T16:35:46.084Z,26.42
2022-08-11T16:40:52.150Z,25.14
2022-08-11T16:45:56.485Z,24.64
2022-08-11T16:50:59.278Z,26.37
2022-08-11T16:56:05.656Z,27.91
2022-08-11T17:01:11.599Z,27.39
2022-08-11T17:06:14.446Z,28.41
2022-08-11T17:11:19.265Z,29.98
2022-08-11T17:16:27.686Z,31.11
2022-08-11T17:21:34.027Z,33.03
2022-08-11T17:26:45.363Z,36.07
2022-08-11T17:31:49.433Z,37.28
2022-08-11T17:36:56.132Z,39.30
2022-08-11T17:42:00.562Z,40.22
2022-08-11T17:47:06.152Z,41.32
2022-08-11T17:52:10.015Z,42.55
2022-08-11T17:57:20.534Z,44.88
2022-08-11T18:02:48.217Z,45.87
2022-08-11T18:07:53.373Z,46.72
2022-08-11T18:12:57.433Z,48.89
2022-08-11T18:17:59.864Z,50.55
2022-08-11T18:23:08.296Z,52.76
2022-08-11T18:28:12.854Z,55.59
2022-08-11T18:33:44.908Z,56.60
2022-08-11T18:38:41.981Z,61.11
2022-08-11T18:43:48.232Z,61.83
2022-08-11T18:48:54.953Z,63.02
2022-08-11T18:54:08.757Z,64.23
2022-08-11T18:59:13.728Z,65.97
2022-08-11T19:04:19.300Z,67.49
2022-08-11T19:09:21.903Z,69.71
2022-08-11T19:14:25.101Z,70.37
2022-08-11T19:19:29.332Z,71.65
2022-08-11T19:24:32.935Z,71.89
2022-08-11T19:30:04.883Z,74.08
2022-08-11T19:35:01.352Z,75.27
2022-08-11T19:40:09.746Z,77.46
2022-08-11T19:45:16.100Z,78.06
2022-08-11T19:50:24.199Z,78.93
2022-08-11T19:55:27.970Z,79.85
2022-08-11T20:00:31.140Z,81.24
2022-08-11T20:05:34.301Z,82.50
2022-08-11T20:10:37.552Z,82.69
2022-08-11T20:15:41.477Z,84.04
2022-08-11T20:20:47.013Z,83.51
2022-08-11T20:25:55.782Z,84.54
2022-08-11T20:31:07.999Z,84.05
2022-08-11T20:36:13.381Z,84.33
2022-08-11T20:41:17.306Z,85.94
2022-08-11T20:46:21.838Z,87.89
2022-08-11T20:51:25.190Z,89.40
2022-08-11T20:56:31.103Z,90.35
2022-08-11T21:01:38.764Z,92.11
2022-08-11T21:06:44.956Z,93.98
2022-08-11T21:11:49.442Z,94.92
2022-08-11T21:16:54.629Z,94.53
2022-08-11T21:22:00.569Z,94.80
2022-08-11T21:27:07.134Z,95.60
2022-08-11T21:32:20.573Z,96.64
2022-08-11T21:37:24.582Z,97.23
2022-08-11T21:42:28.168Z,99.87
2022-08-11T21:47:43.551Z,100.00
2022-08-11T21:52:46.832Z,100.00
2022-08-11T21:57:50.685Z,100.00
2022-08-11T22:02:53.922Z,100.00
2022-08-11T22:07:57.079Z,100.00
2022-08-11T22:12:59.512Z,100.00
2022-08-11T22:18:02.038Z,100.00
2022-08-11T22:23:05.029Z,100.00
2022-08-11T22:28:07.231Z,100.00
2022-08-11T22:33:09.636Z,100.00
2022-08-11T22:38:12.969Z,100.00
2022-08-11T22:43:15.491Z,100.00
2022-08-11T22:48:20.129Z,100.00
2022-08-11T22:53:25.579Z,100.00
2022-08-11T22:58:49.311Z,100.00
2022-08-11T23:03:52.634Z,100.00
2022-08-11T23:08:56.916Z,100.00
2022-08-11T23:14:00.069Z,100.00
2022-08-11T23:19:04.319Z,100.00
2022-08-11T23:24:07.593Z,100.00
2022-08-11T23:29:11.310Z,100.00
2022-08-11T23:35:04.342Z,100.00
2022-08-11T23:40:06.579Z,100.00
2022-08-11T23:45:10.140Z,100.00
2022-08-11T23:50:13.002Z,100.00
2022-08-11T23:55:21.061Z,100.00
